Latest Weather Observations for Blackwater Airport

IDQ60801

Issued at 11:35 pm EST Friday 1 August 2014 (issued every 30 minutes, with the page automatically refreshed every 10 minutes)

About weather observations | Map of weather stations | Latest weather observations for QLD | Other Formats
Station Details ID: 035134 Name: BLACKWATER AIRPORT Lat: -23.60 Lon: 148.81 Height: 192.95 m
Data from the previous 72 hours. | See also: Recent months at Blackwater Airport
Date/Time
EST
Temp
°C
App
Temp
°C
Dew
Point
Rel
Hum
%
Delta-T
°C
Wind Press
QNH
hPa
Press
MSL
hPa
Rain
since 9 am
mm
Dir
 
Spd
km/h
Gust
km/h
Spd
kts
Gust
kts
01/11:30pm 17.0 14.8 6.2 49 5.3 ENE 7 9 4 5 1017.7 - 0.0
01/11:00pm 16.1 13.9 5.4 49 5.2 ENE 6 9 3 5 1017.6 1017.2 0.0
01/10:30pm 15.8 13.7 5.7 51 4.9 E 6 9 3 5 1017.5 - 0.0
01/10:00pm 16.2 14.1 5.8 50 5.1 SE 6 6 3 3 1017.4 1017.0 0.0
01/09:30pm 15.8 12.4 5.7 51 4.9 S 13 15 7 8 1017.3 - 0.0
01/09:00pm 15.5 12.6 4.8 49 5.1 SSW 9 15 5 8 1017.0 1016.6 0.0
01/08:30pm 16.2 15.0 4.6 46 5.5 CALM 0 4 0 2 1016.8 - 0.0
01/08:00pm 17.4 15.7 4.0 41 6.3 S 2 9 1 5 1016.4 1016.0 0.0
01/07:30pm 19.6 18.7 6.0 41 6.8 CALM 0 0 0 0 1016.1 - 0.0
01/07:00pm 20.5 19.5 5.7 38 7.4 CALM 0 0 0 0 1015.9 1015.5 0.0
01/06:30pm 20.8 19.7 5.2 36 7.8 CALM 0 6 0 3 1015.6 - 0.0
01/06:00pm 23.5 21.2 5.9 32 9.0 WNW 7 9 4 5 1015.3 1014.9 0.0
01/05:30pm 25.0 21.6 5.7 29 10.0 W 13 19 7 10 1015.1 - 0.0
01/05:00pm 26.7 23.7 6.2 27 10.8 W 11 15 6 8 1014.8 1014.4 0.0
01/04:30pm 26.3 22.8 5.3 26 10.8 SW 13 17 7 9 1014.6 - 0.0
01/04:00pm 27.0 23.7 6.4 27 10.9 WSW 13 17 7 9 1014.6 1014.1 0.0
01/03:30pm 27.5 24.6 6.3 26 11.2 SW 11 19 6 10 1014.7 - 0.0
01/03:00pm 26.7 22.5 5.6 26 11.0 W 17 26 9 14 1014.8 1014.4 0.0
01/02:30pm 27.6 23.7 5.2 24 11.6 SW 15 26 8 14 1015.1 - 0.0
01/02:00pm 26.4 23.4 5.9 27 10.7 W 11 26 6 14 1015.5 1015.1 0.0
01/01:30pm 26.4 24.5 7.4 30 10.2 SSE 7 11 4 6 1015.8 - 0.0
01/01:00pm 27.2 25.3 7.6 29 10.6 NNW 7 20 4 11 1016.3 1015.9 0.0
01/12:30pm 26.2 23.2 7.7 31 10.0 NNW 13 20 7 11 1017.0 - 0.0
01/12:00pm 25.9 23.7 10.9 39 8.5 N 13 20 7 11 1017.5 1017.1 0.0
01/11:30am 24.2 22.2 11.5 45 7.2 NW 13 20 7 11 1018.0 - 0.0
01/11:00am 23.6 21.6 12.6 50 6.3 N 15 24 8 13 1018.5 1018.1 0.0
01/10:30am 22.8 20.8 12.7 53 5.8 N 15 24 8 13 1018.9 - 0.0
01/10:00am 22.3 21.8 13.9 59 4.9 N 9 20 5 11 1019.2 1018.9 0.0
01/09:30am 21.3 20.2 14.2 64 4.2 N 13 19 7 10 1019.7 - 0.0
01/09:00am 19.9 19.0 13.8 68 3.5 N 11 15 6 8 1019.7 1019.4 0.0
01/08:30am 18.8 18.5 13.4 71 3.1 NNE 7 13 4 7 1019.4 - 0.0
01/08:00am 16.9 16.9 13.6 81 1.9 NNE 6 9 3 5 1019.2 1019.0 0.0
01/07:30am 12.1 12.1 11.0 93 0.6 W 2 7 1 4 1018.8 - 0.0
01/07:00am 9.6 7.9 8.2 91 0.7 S 7 7 4 4 1018.6 1018.4 0.0
01/06:30am 9.4 7.6 7.8 90 0.8 SW 7 9 4 5 1018.3 - 0.0
01/06:00am 9.9 9.5 8.3 90 0.8 S 0 0 0 0 1017.9 1017.7 0.0
01/05:30am 9.7 8.5 8.0 89 0.8 S 4 7 2 4 1017.5 - 0.0
01/05:00am 10.1 9.4 8.5 90 0.8 S 2 7 1 4 1017.5 1017.2 0.0
01/04:30am 10.9 9.7 9.5 91 0.7 ESE 6 7 3 4 1017.3 - 0.0
01/04:00am 11.1 10.9 9.2 88 1.0 CALM 0 0 0 0 1017.5 1017.2 0.0
01/03:30am 11.8 11.8 9.9 88 1.0 CALM 0 0 0 0 1017.5 - 0.0
01/03:00am 14.0 13.5 12.6 91 0.8 ENE 7 11 4 6 1017.5 1017.2 0.0
01/02:30am 13.7 12.7 12.3 91 0.8 ENE 9 11 5 6 1017.7 - 0.0
01/02:00am 13.5 12.4 11.9 90 0.9 E 9 11 5 6 1018.0 1017.8 0.0
01/01:30am 13.2 11.8 10.9 86 1.2 ENE 9 9 5 5 1018.1 - 0.0
01/01:00am 13.7 12.8 11.4 86 1.2 ENE 7 7 4 4 1018.4 1018.2 0.0
01/12:30am 14.1 12.8 11.1 82 1.6 NE 9 9 5 5 1018.6 - 0.0
01/12:00am 14.5 12.8 11.3 81 1.7 ENE 11 13 6 7 1018.7 1018.5 0.0
 
Date/Time
EST
Temp
°C
App
Temp
°C
Dew
Point
Rel
Hum
%
Delta-T
°C
Wind Press
QNH
hPa
Press
MSL
hPa
Rain
since 9 am
mm
Dir
 
Spd
km/h
Gust
km/h
Spd
kts
Gust
kts
31/11:30pm 14.7 13.3 10.9 78 2.0 ENE 9 11 5 6 1018.7 - 0.0
31/11:00pm 15.0 13.3 11.2 78 2.0 E 11 15 6 8 1018.6 1018.4 0.0
31/10:30pm 15.3 14.3 11.1 76 2.3 ENE 7 11 4 6 1018.7 - 0.0
31/10:00pm 15.6 14.1 10.4 71 2.8 NE 9 11 5 6 1018.6 1018.4 0.0
31/09:30pm 16.3 15.2 10.8 70 3.0 ENE 7 9 4 5 1018.6 - 0.0
31/09:00pm 16.7 15.2 10.5 67 3.3 ENE 9 11 5 6 1018.2 1018.0 0.0
31/08:30pm 17.6 15.3 10.5 63 3.8 NE 13 15 7 8 1017.9 - 0.0
31/08:00pm 19.3 16.7 10.6 57 4.7 NNE 15 19 8 10 1017.5 1017.2 0.0
31/07:30pm 19.6 16.7 9.8 53 5.3 NNE 15 19 8 10 1017.3 - 0.0
31/07:00pm 19.7 16.8 9.6 52 5.4 NE 15 20 8 11 1016.8 1016.5 0.0
31/06:30pm 19.5 17.1 8.8 50 5.6 NNE 11 13 6 7 1016.4 - 0.0
31/06:00pm 19.4 16.7 7.5 46 6.1 N 11 13 6 7 1016.3 1016.0 0.0
31/05:30pm 21.8 18.7 7.2 39 7.6 N 13 15 7 8 1016.2 - 0.0
31/05:00pm 23.6 21.0 7.7 36 8.4 NNW 11 20 6 11 1016.2 1015.9 0.0
31/04:30pm 24.9 22.0 8.0 34 9.1 N 13 17 7 9 1016.1 - 0.0
31/04:00pm 25.4 21.6 7.5 32 9.5 NNW 17 24 9 13 1016.2 1015.9 0.0
31/03:30pm 25.0 22.0 7.6 33 9.3 NNW 13 20 7 11 1016.3 - 0.0
31/03:00pm 26.0 23.2 7.1 30 10.0 NE 11 17 6 9 1016.5 1016.2 0.0
31/02:30pm 24.3 22.3 7.0 33 9.1 NNW 7 13 4 7 1016.8 - 0.0
31/02:00pm 26.3 22.2 7.8 31 10.0 N 19 26 10 14 1017.1 1016.8 0.0
31/01:30pm 25.9 21.1 7.5 31 9.8 N 22 37 12 20 1017.7 - 0.0
31/01:00pm 25.2 22.2 7.8 33 9.3 NW 13 20 7 11 1018.2 1018.0 0.0
31/12:30pm 23.5 21.3 8.0 37 8.3 ENE 9 17 5 9 1019.1 - 0.0
31/12:00pm 23.5 20.7 8.4 38 8.1 N 13 24 7 13 1019.8 1019.5 0.0
31/11:30am 23.5 21.3 9.5 41 7.7 N 11 19 6 10 1020.4 - 0.0
31/11:00am 23.0 20.8 9.4 42 7.4 NE 11 20 6 11 1021.1 1020.8 0.0
31/10:30am 22.8 20.6 10.9 47 6.6 N 13 19 7 10 1021.5 - 0.0
31/10:00am 21.8 19.5 10.6 49 6.2 NNE 13 20 7 11 1021.8 1021.5 0.0
31/09:30am 20.8 19.0 10.9 53 5.5 ENE 11 19 6 10 1022.1 - 0.0
31/09:00am 18.6 17.1 10.7 60 4.3 ESE 9 13 5 7 1022.0 1021.7 0.0
31/08:30am 16.3 14.9 9.7 65 3.5 SE 7 11 4 6 1022.0 - 0.0
31/08:00am 14.8 14.5 10.0 73 2.5 SSE 2 7 1 4 1021.7 1021.4 0.0
31/07:30am 12.2 10.9 10.1 87 1.1 S 7 9 4 5 1021.5 - 0.0
31/07:00am 9.2 6.9 7.6 90 0.8 SSW 9 11 5 6 1021.3 1021.0 0.0
31/06:30am 8.2 6.1 5.8 85 1.1 SW 6 7 3 4 1021.0 - 0.0
31/06:00am 8.3 6.2 5.6 83 1.2 SSW 6 7 3 4 1020.5 1020.2 0.0
31/05:30am 8.8 7.4 5.7 81 1.4 SSW 2 7 1 4 1020.4 - 0.0
31/05:00am 9.0 8.0 5.7 80 1.5 CALM 0 0 0 0 1020.1 1019.8 0.0
31/04:30am 9.3 8.4 6.0 80 1.5 CALM 0 0 0 0 1019.9 - 0.0
31/04:00am 8.7 6.1 4.3 74 1.9 W 7 7 4 4 1020.0 1019.7 0.0
31/03:30am 9.5 8.0 5.1 74 2.0 N 2 7 1 4 1020.1 - 0.0
31/03:00am 10.0 8.9 5.2 72 2.2 CALM 0 0 0 0 1020.3 1020.0 0.0
31/02:30am 10.1 9.1 5.5 73 2.1 CALM 0 0 0 0 1020.4 - 0.0
31/02:00am 9.8 8.6 4.6 70 2.3 CALM 0 0 0 0 1020.5 1020.2 0.0
31/01:30am 10.5 9.4 4.9 68 2.6 CALM 0 0 0 0 1020.7 - 0.0
31/01:00am 12.6 11.8 6.4 66 3.0 CALM 0 0 0 0 1021.0 1020.7 0.0
31/12:30am 12.8 10.9 6.6 66 3.0 NNE 6 9 3 5 1021.1 - 0.0
31/12:00am 13.2 10.6 6.3 63 3.3 NE 9 9 5 5 1021.1 1020.8 0.0
 
Date/Time
EST
Temp
°C
App
Temp
°C
Dew
Point
Rel
Hum
%
Delta-T
°C
Wind Press
QNH
hPa
Press
MSL
hPa
Rain
since 9 am
mm
Dir
 
Spd
km/h
Gust
km/h
Spd
kts
Gust
kts
30/11:30pm 13.6 10.9 5.7 59 3.8 NE 9 13 5 7 1021.2 - 0.0
30/11:00pm 15.2 11.5 6.2 55 4.4 ENE 15 15 8 8 1021.1 1020.8 0.0
30/10:30pm 15.5 11.8 6.2 54 4.5 ENE 15 17 8 9 1021.1 - 0.0
30/10:00pm 15.4 11.9 5.3 51 4.8 ESE 13 17 7 9 1021.1 1020.8 0.0
30/09:30pm 15.6 13.3 5.5 51 4.9 NE 7 9 4 5 1020.8 - 0.0
30/09:00pm 15.9 13.0 4.9 48 5.2 NE 9 11 5 6 1020.6 1020.3 0.0
30/08:30pm 16.3 12.3 4.7 46 5.5 NE 15 17 8 9 1020.5 - 0.0
30/08:00pm 17.8 13.6 4.0 40 6.5 ENE 15 17 8 9 1020.2 1019.9 0.0
30/07:30pm 18.7 14.6 4.1 38 7.0 ENE 15 17 8 9 1020.0 - 0.0
30/07:00pm 19.9 15.8 4.4 36 7.5 ENE 15 19 8 10 1019.7 1019.4 0.0
30/06:30pm 19.2 15.8 3.8 36 7.4 ENE 11 13 6 7 1019.4 - 0.0
30/06:00pm 20.8 17.4 4.0 33 8.1 ENE 11 13 6 7 1019.0 1018.8 0.0
30/05:30pm 23.1 19.3 4.1 29 9.4 ENE 13 19 7 10 1018.8 - 0.0
30/05:00pm 24.6 20.2 4.9 28 10.0 ENE 17 22 9 12 1018.7 1018.5 0.0
30/04:30pm 25.3 20.9 5.0 27 10.4 E 17 22 9 12 1018.6 - 0.0
30/04:00pm 25.5 22.1 5.7 28 10.2 E 13 20 7 11 1018.4 1018.2 0.0
30/03:30pm 25.8 21.9 5.4 27 10.5 NE 15 28 8 15 1018.4 - 0.0
30/03:00pm 26.3 22.2 6.3 28 10.5 NE 17 28 9 15 1018.5 1018.3 0.0
30/02:30pm 26.1 22.0 6.2 28 10.4 ENE 17 28 9 15 1018.9 - 0.0
30/02:00pm 26.1 22.5 6.7 29 10.2 NNE 15 20 8 11 1019.3 1019.1 0.0
30/01:30pm 25.6 22.1 7.2 31 9.8 ENE 15 32 8 17 1020.1 - 0.0
30/01:00pm 25.0 22.0 7.6 33 9.3 NE 13 22 7 12 1020.6 1020.3 0.0
30/12:30pm 24.5 21.4 7.2 33 9.1 NE 13 22 7 12 1021.3 - 0.0
30/12:00pm 23.7 20.9 6.9 34 8.8 NE 11 17 6 9 1022.0 1021.7 0.0
30/11:30am 24.0 21.4 7.6 35 8.7 NE 11 19 6 10 1022.8 - 0.0
30/11:00am 22.6 19.9 7.2 37 8.0 NE 11 17 6 9 1023.3 1023.1 0.0
30/10:30am 21.2 18.6 7.8 42 7.0 NNE 11 17 6 9 1023.8 - 0.0
30/10:00am 20.8 19.5 9.1 47 6.2 NE 6 15 3 8 1024.1 1023.9 0.0
30/09:30am 18.9 16.9 8.8 52 5.3 N 9 13 5 7 1024.4 - 0.0
30/09:00am 17.8 16.3 9.2 57 4.5 NNW 7 9 4 5 1024.4 1024.2 0.0
30/08:30am 16.4 16.2 8.9 61 3.9 CALM 0 6 0 3 1024.3 - 0.0
30/08:00am 14.6 13.1 9.0 69 2.9 SE 7 11 4 6 1024.1 1023.9 0.0
30/07:30am 11.4 10.3 8.3 81 1.5 SW 4 7 2 4 1023.6 - 0.0
30/07:00am 8.4 5.9 6.5 88 0.9 S 9 11 5 6 1023.1 1022.9 0.0
30/06:30am 8.0 5.7 5.5 84 1.1 SW 7 9 4 5 1022.7 - 0.0
30/06:00am 8.3 6.1 5.4 82 1.3 WSW 6 7 3 4 1022.3 1022.0 0.0
30/05:30am 11.2 9.4 7.9 80 1.6 E 7 9 4 5 1021.9 - 0.0
30/05:00am 11.3 9.3 8.7 84 1.3 ENE 9 11 5 6 1021.6 1021.3 0.0
30/04:30am 9.7 7.5 6.1 78 1.7 NE 7 9 4 5 1021.4 - 0.0
30/04:00am 8.7 6.7 4.5 75 1.9 ENE 4 7 2 4 1021.4 1021.1 0.0
30/03:30am 11.2 9.1 8.1 81 1.5 ENE 9 9 5 5 1021.3 - 0.0
30/03:00am 11.4 9.8 7.9 79 1.7 ENE 6 7 3 4 1021.4 1021.1 0.0
30/02:30am 11.6 10.4 7.9 78 1.8 ENE 4 6 2 3 1021.5 - 0.0
30/02:00am 12.8 12.7 9.6 81 1.6 CALM 0 0 0 0 1021.5 1021.2 0.0
30/01:30am 12.6 11.3 9.2 80 1.7 ENE 6 7 3 4 1021.5 - 0.0
30/01:00am 13.0 11.6 9.4 79 1.8 ENE 7 9 4 5 1021.5 1021.2 0.0
30/12:30am 13.3 11.1 9.4 77 2.0 E 11 13 6 7 1021.7 - 0.0
30/12:00am 13.7 11.8 9.0 73 2.4 E 9 11 5 6 1021.7 1021.4 0.0

Other Formats:

Comma delimited format used in spreadsheet applications
http://www.bom.gov.au/fwo/IDQ60801/IDQ60801.94398.axf

JavaScript Object Notation format (JSON) in row-major order
http://www.bom.gov.au/fwo/IDQ60801/IDQ60801.94398.json